Time;durP1;ratioP1;P1;durP2;ratioP2;P2;SDS_P1;SDS_P2;PMS_P1;PMS_P2;Temp;Humidity;BMP_temperature;BMP_pressure;BME280_temperature;BME280_humidity;BME280_pressure;Samples;Min_cycle;Max_cycle;Signal;HPM_P1;HPM_P2
2022/06/06 00:02:08;;;;;;;4.40;4.20;;;23.60;93.00;;;;;;5007759;28;20205;-75
2022/06/06 00:04:36;;;;;;;4.65;4.40;;;23.60;93.00;;;;;;5007759;28;20603;-75
2022/06/06 00:07:06;;;;;;;4.70;4.45;;;23.60;93.00;;;;;;5007382;28;20717;-74
2022/06/06 00:09:40;;;;;;;4.70;4.30;;;23.60;93.10;;;;;;5007619;28;20275;-75
2022/06/06 00:12:16;;;;;;;5.18;4.38;;;23.60;93.10;;;;;;5007760;28;20231;-75
2022/06/06 00:14:43;;;;;;;4.40;4.20;;;23.50;93.20;;;;;;5008087;28;20547;-72
2022/06/06 00:17:09;;;;;;;4.63;4.32;;;23.50;93.20;;;;;;5007783;28;20212;-72
2022/06/06 00:19:36;;;;;;;4.88;4.55;;;23.50;93.20;;;;;;5007553;28;20304;-72
2022/06/06 00:22:03;;;;;;;4.75;4.53;;;23.50;93.30;;;;;;5007628;28;20205;-72
2022/06/06 00:24:30;;;;;;;4.55;4.25;;;23.50;93.20;;;;;;5007201;28;20323;-73
2022/06/06 00:26:59;;;;;;;4.65;4.25;;;23.50;93.30;;;;;;5007700;28;20212;-72
2022/06/06 00:29:41;;;;;;;4.68;4.38;;;23.50;93.40;;;;;;5007055;28;20698;-72
2022/06/06 00:34:54;;;;;;;4.90;4.50;;;23.40;93.60;;;;;;5007284;28;20252;-71
2022/06/06 00:37:24;;;;;;;4.75;4.45;;;23.40;93.60;;;;;;5007355;28;20276;-72
2022/06/06 00:40:18;;;;;;;4.70;4.43;;;23.40;93.70;;;;;;5006912;28;20241;-72
2022/06/06 00:42:49;;;;;;;4.82;4.30;;;23.40;93.80;;;;;;5007445;28;20564;-71
2022/06/06 00:45:35;;;;;;;5.25;4.82;;;23.40;93.70;;;;;;5007440;28;20462;-71
2022/06/06 00:48:21;;;;;;;5.20;4.80;;;23.30;93.80;;;;;;5007355;28;20746;-71
2022/06/06 00:51:00;;;;;;;4.90;4.60;;;23.30;93.80;;;;;;5006716;28;20201;-70
2022/06/06 00:53:33;;;;;;;4.68;4.47;;;23.30;93.90;;;;;;5007058;28;20652;-71
2022/06/06 00:56:05;;;;;;;5.05;4.68;;;23.30;93.90;;;;;;5008313;28;20210;-71
2022/06/06 00:58:37;;;;;;;5.47;4.90;;;23.30;94.00;;;;;;5011600;28;20248;-71
2022/06/06 01:01:07;;;;;;;9.07;4.97;;;23.30;94.00;;;;;;5011083;28;20202;-71
2022/06/06 01:03:36;;;;;;;4.75;4.47;;;23.30;94.20;;;;;;5011043;28;20305;-71
2022/06/06 01:06:07;;;;;;;5.15;4.75;;;23.30;94.50;;;;;;5010806;28;20601;-72
2022/06/06 01:08:37;;;;;;;5.53;5.22;;;23.20;94.80;;;;;;5010898;28;20214;-72
2022/06/06 01:11:07;;;;;;;5.43;5.03;;;23.20;95.00;;;;;;5010836;28;21043;-72
2022/06/06 01:13:38;;;;;;;5.28;4.97;;;23.20;95.30;;;;;;5012237;28;20733;-71
2022/06/06 01:16:36;;;;;;;5.47;5.00;;;23.10;95.40;;;;;;5027984;28;20568;-71
2022/06/06 01:19:30;;;;;;;5.40;4.95;;;23.10;95.60;;;;;;4983022;28;20217;-71
2022/06/06 01:22:31;;;;;;;5.30;4.90;;;23.10;95.70;;;;;;5000140;28;20210;-71
2022/06/06 01:25:21;;;;;;;5.68;5.32;;;23.10;95.90;;;;;;5010371;28;20222;-71
2022/06/06 01:27:55;;;;;;;5.28;4.90;;;23.10;96.00;;;;;;4989730;28;20245;-71
2022/06/06 01:30:29;;;;;;;5.38;5.07;;;23.10;96.20;;;;;;5010560;28;20225;-72
2022/06/06 01:32:58;;;;;;;5.95;5.43;;;23.10;96.70;;;;;;5010444;28;20659;-72
2022/06/06 01:35:27;;;;;;;6.40;5.90;;;22.70;97.70;;;;;;5010775;28;20213;-72
2022/06/06 01:37:55;;;;;;;11.48;8.77;;;22.40;98.70;;;;;;5010103;28;20237;-71
2022/06/06 01:40:23;;;;;;;10.13;9.10;;;22.00;99.90;;;;;;5010330;28;20221;-71
2022/06/06 01:42:56;;;;;;;12.40;10.02;;;21.70;99.90;;;;;;5010306;28;20209;-71
2022/06/06 01:45:46;;;;;;;11.02;9.75;;;21.50;99.90;;;;;;5010281;28;20260;-72
2022/06/06 01:48:15;;;;;;;11.10;10.00;;;21.30;99.90;;;;;;5010008;28;20200;-73
2022/06/06 01:50:43;;;;;;;12.88;10.93;;;21.20;99.90;;;;;;5013655;28;20232;-72
2022/06/06 01:53:12;;;;;;;11.38;10.27;;;21.10;99.90;;;;;;5029174;28;20201;-71
2022/06/06 01:55:42;;;;;;;11.73;10.57;;;21.00;99.90;;;;;;5009949;28;20233;-72
2022/06/06 01:58:12;;;;;;;11.40;10.50;;;20.90;99.90;;;;;;5009830;28;20209;-72
2022/06/06 02:00:41;;;;;;;11.30;10.27;;;20.80;99.90;;;;;;5009859;28;20217;-72
2022/06/06 02:03:09;;;;;;;10.93;9.97;;;20.80;99.90;;;;;;5010077;28;20205;-71
2022/06/06 02:05:36;;;;;;;10.43;9.63;;;20.80;99.90;;;;;;5010091;28;20225;-74
2022/06/06 02:08:03;;;;;;;10.77;9.87;;;20.80;99.90;;;;;;5008696;28;20712;-74
2022/06/06 02:10:30;;;;;;;10.53;9.20;;;20.80;99.90;;;;;;5010030;28;20317;-74
2022/06/06 02:12:57;;;;;;;11.77;9.77;;;20.80;99.90;;;;;;5009885;28;20206;-73
2022/06/06 02:15:25;;;;;;;10.57;9.60;;;20.80;99.90;;;;;;5009703;28;20229;-71
2022/06/06 02:17:55;;;;;;;10.20;9.37;;;20.80;99.90;;;;;;5009009;28;20814;-71
2022/06/06 02:20:25;;;;;;;11.03;10.03;;;20.80;99.90;;;;;;5009609;28;20212;-72
2022/06/06 02:22:53;;;;;;;10.47;9.43;;;20.80;99.90;;;;;;5009561;28;20800;-74
2022/06/06 02:25:21;;;;;;;10.37;9.37;;;20.80;99.90;;;;;;5009547;28;20226;-75
2022/06/06 02:27:48;;;;;;;10.20;9.30;;;20.80;99.90;;;;;;5009367;28;20304;-75
2022/06/06 02:30:18;;;;;;;11.70;10.50;;;20.80;99.90;;;;;;5009540;28;20222;-75
2022/06/06 02:32:45;;;;;;;11.07;10.07;;;20.80;99.90;;;;;;5009555;28;20308;-74
2022/06/06 02:35:16;;;;;;;10.53;9.53;;;20.80;99.90;;;;;;5009187;28;20668;-72
2022/06/06 02:37:44;;;;;;;14.17;10.17;;;20.80;99.90;;;;;;5009035;28;20241;-72
2022/06/06 02:40:13;;;;;;;10.85;9.73;;;20.90;99.90;;;;;;5009000;28;20209;-72
2022/06/06 02:42:40;;;;;;;10.13;9.23;;;20.90;99.90;;;;;;5009452;28;20292;-72
2022/06/06 02:45:09;;;;;;;10.20;9.13;;;20.90;99.90;;;;;;5008894;28;20288;-72
2022/06/06 02:47:36;;;;;;;11.07;10.17;;;20.90;99.90;;;;;;5009193;28;20629;-72
2022/06/06 02:50:04;;;;;;;9.48;8.77;;;20.90;99.90;;;;;;5008630;28;20664;-73
2022/06/06 02:52:33;;;;;;;10.37;9.47;;;20.90;99.90;;;;;;5009154;28;20645;-72
2022/06/06 02:55:01;;;;;;;11.97;10.67;;;20.90;99.90;;;;;;5008032;28;20609;-72
2022/06/06 02:57:29;;;;;;;11.13;10.23;;;20.90;99.90;;;;;;5008844;28;20718;-72
2022/06/06 02:59:58;;;;;;;11.60;10.80;;;20.90;99.90;;;;;;5008926;28;20237;-72
2022/06/06 03:02:26;;;;;;;10.48;9.77;;;20.90;99.90;;;;;;5008934;28;20213;-72
2022/06/06 03:04:53;;;;;;;10.80;10.13;;;20.90;99.90;;;;;;5008783;28;20263;-72
2022/06/06 03:07:29;;;;;;;12.33;11.10;;;20.90;99.90;;;;;;5008891;28;20611;-74
2022/06/06 03:10:08;;;;;;;11.03;10.03;;;20.90;99.90;;;;;;5008311;28;20209;-74
2022/06/06 03:13:00;;;;;;;11.87;10.90;;;20.90;99.90;;;;;;5008926;28;20202;-74
2022/06/06 03:21:40;;;;;;;12.17;11.10;;;20.90;99.90;;;;;;4999210;28;20209;-75
2022/06/06 03:24:21;;;;;;;12.63;11.70;;;20.40;99.90;;;;;;5008166;28;20194;-74
2022/06/06 03:27:02;;;;;;;12.20;11.30;;;20.10;99.90;;;;;;5008321;28;20252;-74
2022/06/06 03:29:44;;;;;;;12.73;11.70;;;19.80;99.90;;;;;;5008575;28;20558;-75
2022/06/06 03:32:21;;;;;;;12.23;11.43;;;19.50;99.90;;;;;;5008278;28;20636;-74
2022/06/06 03:34:58;;;;;;;13.97;12.93;;;19.30;99.90;;;;;;5008315;28;20198;-74
2022/06/06 03:37:32;;;;;;;13.57;12.47;;;19.30;99.90;;;;;;5008125;28;20244;-74
2022/06/06 03:40:08;;;;;;;13.20;12.10;;;19.40;99.90;;;;;;5007463;28;20664;-75
2022/06/06 03:42:44;;;;;;;14.37;13.27;;;19.20;99.90;;;;;;5007995;28;20190;-74
2022/06/06 03:45:19;;;;;;;15.53;14.33;;;19.30;99.90;;;;;;5008268;28;20189;-74
2022/06/06 03:47:57;;;;;;;15.67;14.47;;;19.00;99.90;;;;;;5007854;28;20201;-74
2022/06/06 03:50:36;;;;;;;14.77;13.67;;;19.00;99.90;;;;;;5008128;28;20193;-74
2022/06/06 03:53:09;;;;;;;13.67;12.67;;;19.10;99.90;;;;;;5007379;28;20217;-74
2022/06/06 03:55:46;;;;;;;14.27;13.20;;;19.10;99.90;;;;;;5007834;28;20783;-74
2022/06/06 03:58:18;;;;;;;13.30;12.30;;;19.00;99.90;;;;;;5007314;28;20197;-74
2022/06/06 04:00:46;;;;;;;12.97;11.97;;;19.00;99.90;;;;;;5007984;28;20209;-75
2022/06/06 04:03:15;;;;;;;13.30;12.27;;;19.10;99.90;;;;;;5008560;28;20214;-75
2022/06/06 04:05:45;;;;;;;12.87;11.77;;;19.10;99.90;;;;;;5007609;28;20233;-75
2022/06/06 04:08:15;;;;;;;12.47;11.57;;;19.20;99.90;;;;;;5007419;28;20205;-74
2022/06/06 04:10:51;;;;;;;12.47;11.53;;;19.20;99.90;;;;;;5007477;28;20220;-74
2022/06/06 04:13:38;;;;;;;12.93;11.90;;;19.20;99.90;;;;;;5007870;28;20292;-74
2022/06/06 04:16:23;;;;;;;12.27;11.47;;;19.20;99.90;;;;;;5007620;28;20649;-74
2022/06/06 04:18:59;;;;;;;12.93;11.93;;;19.30;99.90;;;;;;5007613;28;20206;-74
2022/06/06 04:21:41;;;;;;;12.87;11.87;;;19.30;99.90;;;;;;5007975;28;21012;-74
2022/06/06 04:24:21;;;;;;;12.23;11.40;;;19.30;99.90;;;;;;5007729;28;20220;-74
2022/06/06 04:26:57;;;;;;;12.50;11.60;;;19.30;99.90;;;;;;5007711;28;20229;-73
2022/06/06 04:29:33;;;;;;;13.10;12.00;;;19.40;99.90;;;;;;5007943;28;20207;-72
2022/06/06 04:32:10;;;;;;;13.17;12.17;;;19.50;99.90;;;;;;5010392;28;20243;-74
2022/06/06 04:34:45;;;;;;;12.53;11.53;;;19.50;99.90;;;;;;4992247;28;20288;-74
2022/06/06 04:37:19;;;;;;;13.03;12.07;;;19.50;99.90;;;;;;4991880;28;20241;-76
2022/06/06 04:40:00;;;;;;;12.27;11.43;;;19.40;99.90;;;;;;4997163;28;20261;-75
2022/06/06 04:42:38;;;;;;;12.50;11.60;;;19.70;99.90;;;;;;4996669;28;20201;-75
2022/06/06 04:45:15;;;;;;;12.47;11.37;;;19.70;99.90;;;;;;5011470;28;20201;-75
2022/06/06 04:47:43;;;;;;;11.60;10.83;;;19.70;99.90;;;;;;5011468;28;20256;-75
2022/06/06 04:50:14;;;;;;;13.77;12.70;;;19.70;99.90;;;;;;5011331;28;20594;-74
2022/06/06 04:52:57;;;;;;;11.83;10.93;;;19.70;99.90;;;;;;5011462;28;20198;-72
2022/06/06 04:55:26;;;;;;;11.33;10.53;;;19.70;99.90;;;;;;5010957;28;20743;-71
2022/06/06 04:57:56;;;;;;;10.40;9.70;;;19.70;99.90;;;;;;5011238;28;20213;-71
2022/06/06 05:00:26;;;;;;;10.70;9.93;;;19.60;99.90;;;;;;5011298;28;20205;-72
2022/06/06 05:02:53;;;;;;;10.57;9.87;;;19.50;99.90;;;;;;5011025;28;20190;-71
2022/06/06 05:05:20;;;;;;;10.03;9.20;;;19.50;99.90;;;;;;5010707;28;20968;-71
2022/06/06 05:08:05;;;;;;;10.23;9.43;;;19.50;99.90;;;;;;5010736;28;20238;-71
2022/06/06 05:10:47;;;;;;;9.90;9.10;;;19.40;99.90;;;;;;5010767;28;20220;-71
2022/06/06 05:13:33;;;;;;;10.00;9.23;;;19.40;99.90;;;;;;5011099;28;20200;-72
2022/06/06 05:16:20;;;;;;;8.43;7.90;;;19.40;99.90;;;;;;5010567;28;20252;-72
2022/06/06 05:19:02;;;;;;;8.90;8.17;;;19.50;99.90;;;;;;5010478;28;20421;-72
2022/06/06 05:21:59;;;;;;;9.00;8.40;;;19.60;99.90;;;;;;5010794;28;20209;-72
2022/06/06 05:24:39;;;;;;;9.40;8.70;;;19.70;99.90;;;;;;5009117;28;20551;-71
2022/06/06 05:27:29;;;;;;;9.27;8.60;;;19.90;99.90;;;;;;5010788;28;20221;-71
2022/06/06 05:30:06;;;;;;;9.13;8.43;;;20.00;99.90;;;;;;5010521;28;20225;-72
2022/06/06 05:33:12;;;;;;;9.10;8.50;;;20.10;99.90;;;;;;5010375;28;20197;-72
2022/06/06 05:36:05;;;;;;;8.87;8.37;;;20.20;99.90;;;;;;5003393;28;20205;-72
2022/06/06 05:39:08;;;;;;;9.50;8.90;;;20.00;99.90;;;;;;5010236;28;20205;-72
2022/06/06 05:41:47;;;;;;;9.10;8.50;;;20.00;99.90;;;;;;5009742;28;20228;-76
2022/06/06 05:44:24;;;;;;;9.53;8.90;;;20.00;99.90;;;;;;5009548;28;20291;-75
2022/06/06 05:46:58;;;;;;;8.83;8.20;;;20.00;99.90;;;;;;5010228;28;20223;-76
2022/06/06 05:49:43;;;;;;;8.73;8.13;;;20.00;99.90;;;;;;5010326;28;20201;-75
2022/06/06 05:52:30;;;;;;;8.93;8.23;;;20.00;99.90;;;;;;4990906;28;20284;-72
2022/06/06 05:55:09;;;;;;;8.27;7.67;;;19.90;99.90;;;;;;4990196;28;20205;-72
2022/06/06 05:58:10;;;;;;;8.30;7.80;;;19.90;99.90;;;;;;4990605;28;20281;-72
2022/06/06 06:00:47;;;;;;;8.30;7.60;;;19.80;99.90;;;;;;4990457;28;20197;-72
2022/06/06 06:03:57;;;;;;;7.63;7.03;;;20.00;99.90;;;;;;4993236;28;20251;-72
2022/06/06 06:06:33;;;;;;;7.73;7.23;;;19.80;99.90;;;;;;5010002;28;20268;-72
2022/06/06 06:09:22;;;;;;;7.00;6.50;;;19.80;99.90;;;;;;5009578;28;20250;-72
2022/06/06 06:12:05;;;;;;;7.10;6.60;;;19.70;99.90;;;;;;4996835;28;20585;-72
2022/06/06 06:14:47;;;;;;;7.37;6.87;;;19.70;99.90;;;;;;5009393;28;20640;-72
2022/06/06 06:17:18;;;;;;;7.43;6.97;;;19.70;99.90;;;;;;5009513;28;20197;-72
2022/06/06 06:19:54;;;;;;;6.40;6.00;;;19.70;99.90;;;;;;5009710;28;20284;-73
2022/06/06 06:22:23;;;;;;;6.93;6.53;;;19.70;99.90;;;;;;5009515;28;20197;-74
2022/06/06 06:24:56;;;;;;;7.57;6.97;;;19.60;99.90;;;;;;5009105;28;20689;-74
2022/06/06 06:27:24;;;;;;;6.63;6.13;;;19.50;99.90;;;;;;5009515;28;20217;-72
2022/06/06 06:29:52;;;;;;;7.20;6.70;;;19.50;99.90;;;;;;5009230;28;20237;-73
2022/06/06 06:32:37;;;;;;;7.00;6.50;;;19.50;99.90;;;;;;5009103;28;20740;-73
2022/06/06 06:35:16;;;;;;;6.70;6.30;;;19.50;99.90;;;;;;5008982;28;20240;-72
2022/06/06 06:38:01;;;;;;;8.00;7.30;;;19.50;99.90;;;;;;5008974;28;20237;-75
2022/06/06 06:40:43;;;;;;;7.40;6.67;;;19.60;99.90;;;;;;5009442;28;20205;-76
2022/06/06 06:43:18;;;;;;;6.10;5.80;;;19.60;99.90;;;;;;5009184;28;20782;-76
2022/06/06 06:45:49;;;;;;;6.10;5.70;;;19.70;99.90;;;;;;5009124;28;20207;-75
2022/06/06 06:48:24;;;;;;;6.00;5.60;;;19.90;99.90;;;;;;5009368;28;20324;-76
2022/06/06 06:50:56;;;;;;;5.73;5.37;;;20.00;99.90;;;;;;5008773;28;21065;-75
2022/06/06 06:53:42;;;;;;;6.47;5.83;;;19.90;99.90;;;;;;5008766;28;20353;-75
2022/06/06 06:56:31;;;;;;;6.13;5.73;;;20.00;99.90;;;;;;5009158;28;20197;-75
2022/06/06 06:59:09;;;;;;;6.10;5.43;;;20.00;99.90;;;;;;5009518;28;20198;-76
2022/06/06 07:08:32;;;;;;;6.13;5.67;;;20.10;99.90;;;;;;5008641;28;20185;-75
2022/06/06 07:10:44;;;;;;;6.33;5.80;;;20.20;99.90;;;;;;4962900;28;20238;-72
2022/06/06 07:13:30;;;;;;;5.87;5.43;;;20.20;99.90;;;;;;4963483;28;20282;-72
2022/06/06 07:16:09;;;;;;;5.83;5.43;;;20.20;99.90;;;;;;4987496;28;20564;-73
2022/06/06 07:18:40;;;;;;;5.97;5.40;;;20.20;99.90;;;;;;5000727;28;20215;-73
2022/06/06 07:21:08;;;;;;;6.00;5.60;;;20.20;99.90;;;;;;4998584;28;20194;-73
2022/06/06 07:23:40;;;;;;;5.97;5.47;;;20.30;99.90;;;;;;5000343;28;20203;-73
2022/06/06 07:26:10;;;;;;;5.73;5.33;;;20.30;99.90;;;;;;5006383;28;20220;-72
2022/06/06 07:28:38;;;;;;;9.83;9.03;;;20.30;99.90;;;;;;5006348;28;20233;-73
2022/06/06 07:31:17;;;;;;;12.93;11.63;;;20.40;99.90;;;;;;5002263;28;20731;-72
2022/06/06 07:34:23;;;;;;;6.80;6.40;;;20.40;99.90;;;;;;4986846;28;20199;-74
2022/06/06 07:37:00;;;;;;;5.53;5.23;;;20.50;99.90;;;;;;5000372;28;20340;-73
2022/06/06 07:39:34;;;;;;;5.30;5.00;;;20.60;99.90;;;;;;5006009;28;20328;-73
2022/06/06 07:42:16;;;;;;;5.57;5.17;;;20.60;99.90;;;;;;5005738;28;20333;-74
2022/06/06 07:45:02;;;;;;;5.83;4.80;;;20.70;99.90;;;;;;5005879;28;20198;-73
2022/06/06 07:47:40;;;;;;;5.30;4.90;;;20.80;99.90;;;;;;5005622;28;20312;-73
2022/06/06 07:50:14;;;;;;;5.33;4.93;;;20.90;99.90;;;;;;5005424;28;20304;-73
2022/06/06 07:52:48;;;;;;;5.27;4.87;;;21.00;99.90;;;;;;5005763;28;20208;-73
2022/06/06 07:55:21;;;;;;;5.63;5.23;;;21.10;99.90;;;;;;5005909;28;20569;-73
2022/06/06 07:57:56;;;;;;;4.60;4.30;;;21.20;99.90;;;;;;5005914;28;20201;-73
2022/06/06 08:00:28;;;;;;;5.72;4.90;;;21.30;99.90;;;;;;5006206;28;20227;-72
2022/06/06 08:02:58;;;;;;;5.93;5.07;;;21.30;99.90;;;;;;5006271;28;20329;-73
2022/06/06 08:06:09;;;;;;;4.60;4.30;;;21.40;99.90;;;;;;5002441;28;20209;-73
2022/06/06 08:09:00;;;;;;;5.75;4.53;;;21.30;99.90;;;;;;5005513;28;20236;-73
2022/06/06 08:11:39;;;;;;;4.70;4.30;;;21.40;99.90;;;;;;4987917;28;20956;-73
2022/06/06 08:14:15;;;;;;;4.90;4.53;;;21.30;99.90;;;;;;4999500;28;20193;-73
2022/06/06 08:16:49;;;;;;;4.73;4.43;;;21.30;99.90;;;;;;4988511;28;20194;-73
2022/06/06 08:19:33;;;;;;;4.67;4.27;;;21.40;99.90;;;;;;5001981;28;20194;-73
2022/06/06 08:22:01;;;;;;;4.10;3.90;;;21.40;99.90;;;;;;4995867;28;20197;-73
2022/06/06 08:24:33;;;;;;;4.40;4.10;;;21.50;99.90;;;;;;4995655;28;20201;-73
2022/06/06 08:27:02;;;;;;;4.53;4.20;;;21.70;99.90;;;;;;4997291;28;20309;-73
2022/06/06 08:29:31;;;;;;;4.68;4.28;;;21.70;99.90;;;;;;4997467;28;20225;-74
2022/06/06 08:31:59;;;;;;;4.80;4.45;;;21.70;99.90;;;;;;4996852;28;20201;-73
2022/06/06 08:34:26;;;;;;;5.07;4.57;;;21.70;99.90;;;;;;4998035;28;20260;-73
2022/06/06 08:37:16;;;;;;;4.57;4.28;;;21.90;99.90;;;;;;4995947;28;20582;-73
2022/06/06 08:39:55;;;;;;;4.50;4.25;;;22.00;99.90;;;;;;5000543;28;20216;-73
2022/06/06 08:42:32;;;;;;;4.50;3.92;;;22.00;99.90;;;;;;4995534;28;20190;-73
2022/06/06 08:45:20;;;;;;;4.93;4.43;;;21.90;99.90;;;;;;4995419;28;20226;-73
2022/06/06 08:47:59;;;;;;;4.33;4.03;;;21.80;99.90;;;;;;4993995;28;20214;-74
2022/06/06 08:50:45;;;;;;;4.37;4.07;;;21.70;99.90;;;;;;4997450;28;20205;-73
2022/06/06 08:53:48;;;;;;;4.33;3.93;;;21.70;99.90;;;;;;4996748;28;20221;-73
2022/06/06 08:56:46;;;;;;;4.35;3.95;;;21.90;99.90;;;;;;4993923;28;20206;-73
2022/06/06 08:59:53;;;;;;;4.55;4.15;;;22.10;99.90;;;;;;4999216;28;20259;-73
2022/06/06 09:02:43;;;;;;;4.57;4.35;;;22.30;99.90;;;;;;4988884;28;20226;-73
2022/06/06 09:05:54;;;;;;;4.43;4.03;;;22.30;99.90;;;;;;4996009;28;20195;-73
2022/06/06 09:08:57;;;;;;;4.30;3.95;;;22.30;99.90;;;;;;4985330;28;20226;-73
2022/06/06 09:12:19;;;;;;;4.10;3.70;;;22.40;99.90;;;;;;4985716;28;20663;-73
2022/06/06 09:15:20;;;;;;;4.10;3.80;;;22.50;99.90;;;;;;4985981;28;20295;-73
2022/06/06 09:18:18;;;;;;;3.60;3.40;;;22.50;99.90;;;;;;4999188;28;20204;-73
2022/06/06 09:21:00;;;;;;;4.32;3.90;;;22.50;99.90;;;;;;5008863;28;20754;-73
2022/06/06 09:23:52;;;;;;;4.28;3.88;;;22.50;99.90;;;;;;5008358;28;20194;-72
2022/06/06 09:26:25;;;;;;;3.83;3.63;;;22.30;99.90;;;;;;5009060;28;20292;-73
2022/06/06 09:29:24;;;;;;;4.00;3.80;;;22.30;99.90;;;;;;5008342;28;20236;-73
2022/06/06 09:32:20;;;;;;;4.53;4.15;;;22.30;99.90;;;;;;5008644;28;20209;-73
2022/06/06 09:35:20;;;;;;;4.47;3.90;;;22.30;99.90;;;;;;5002989;28;20308;-73
2022/06/06 09:38:03;;;;;;;4.47;4.07;;;22.40;99.90;;;;;;4999237;28;20287;-73
2022/06/06 09:40:42;;;;;;;4.15;3.83;;;22.40;99.90;;;;;;5001379;28;20208;-73
2022/06/06 09:43:14;;;;;;;4.50;4.10;;;22.50;99.90;;;;;;4998188;28;20665;-73
2022/06/06 09:46:15;;;;;;;3.70;3.40;;;22.60;99.90;;;;;;4992967;28;20209;-71
2022/06/06 09:49:13;;;;;;;3.97;3.78;;;22.70;99.90;;;;;;4989488;28;20240;-71
2022/06/06 09:52:12;;;;;;;4.10;3.67;;;22.90;99.90;;;;;;4989219;28;20231;-71
2022/06/06 10:02:06;;;;;;;3.70;3.50;;;23.10;99.90;;;;;;5008221;28;20220;-72
2022/06/06 10:05:11;;;;;;;4.25;3.85;;;23.10;99.90;;;;;;4963517;28;20236;-72
2022/06/06 10:08:14;;;;;;;3.47;3.20;;;23.10;99.90;;;;;;4977291;28;20240;-72
2022/06/06 10:11:20;;;;;;;4.00;3.70;;;23.10;99.90;;;;;;5006859;28;20576;-72
2022/06/06 10:14:08;;;;;;;3.78;3.50;;;23.00;99.90;;;;;;5007341;28;20198;-72
2022/06/06 10:16:53;;;;;;;3.65;3.45;;;23.10;99.90;;;;;;4993813;28;20209;-72
2022/06/06 10:19:36;;;;;;;3.65;3.45;;;22.90;99.90;;;;;;4995522;28;20213;-72
2022/06/06 10:22:32;;;;;;;3.92;3.63;;;22.90;99.90;;;;;;4999024;28;20206;-72
2022/06/06 10:25:40;;;;;;;3.55;3.35;;;22.90;99.90;;;;;;5001136;28;20224;-71
2022/06/06 10:28:24;;;;;;;3.83;3.47;;;22.90;99.90;;;;;;4957352;28;20271;-72
2022/06/06 10:31:05;;;;;;;3.60;3.30;;;23.10;99.90;;;;;;5006651;28;20261;-72
2022/06/06 10:33:53;;;;;;;3.83;3.53;;;23.20;99.90;;;;;;5006921;28;20205;-72
2022/06/06 10:36:50;;;;;;;3.60;3.30;;;23.40;99.90;;;;;;5006131;28;20723;-72
2022/06/06 10:39:41;;;;;;;3.08;2.88;;;23.40;99.90;;;;;;4989427;28;20219;-72
2022/06/06 10:42:25;;;;;;;3.17;2.97;;;23.60;99.90;;;;;;5006626;28;20209;-72
2022/06/06 10:45:14;;;;;;;3.83;3.63;;;23.80;99.90;;;;;;5006711;28;20204;-72
2022/06/06 10:48:16;;;;;;;4.22;3.00;;;23.90;99.90;;;;;;5006681;28;20225;-72
2022/06/06 10:54:53;;;;;;;3.38;3.08;;;24.10;99.90;;;;;;4999711;28;20703;-72
2022/06/06 10:57:44;;;;;;;2.80;2.70;;;24.40;99.90;;;;;;5006428;28;20593;-72
2022/06/06 11:00:19;;;;;;;2.85;2.75;;;24.60;99.90;;;;;;4986988;28;20261;-72
2022/06/06 11:03:20;;;;;;;3.40;3.20;;;24.70;99.90;;;;;;4993880;28;20197;-73
2022/06/06 11:06:18;;;;;;;3.47;3.28;;;24.80;99.90;;;;;;5007260;28;20645;-72
2022/06/06 11:09:10;;;;;;;3.10;2.97;;;24.80;99.90;;;;;;5001234;28;20263;-72
2022/06/06 11:12:17;;;;;;;4.80;3.03;;;25.00;99.90;;;;;;4992253;28;20675;-71
2022/06/06 11:14:45;;;;;;;3.45;3.00;;;25.20;99.90;;;;;;4992234;28;20213;-72
2022/06/06 11:17:54;;;;;;;9.48;3.30;;;25.40;99.90;;;;;;4998669;28;20210;-73
2022/06/06 11:20:50;;;;;;;3.38;3.13;;;25.60;99.90;;;;;;4988744;28;20336;-72
2022/06/06 11:23:21;;;;;;;3.60;3.40;;;25.40;99.90;;;;;;5005743;28;20205;-73
2022/06/06 11:26:06;;;;;;;3.10;2.90;;;25.20;99.90;;;;;;5003031;28;20223;-72
2022/06/06 11:28:53;;;;;;;3.35;3.15;;;25.20;99.90;;;;;;5005405;28;20703;-73
2022/06/06 11:31:50;;;;;;;3.30;3.10;;;25.40;99.90;;;;;;5005607;28;20225;-72
2022/06/06 11:34:53;;;;;;;3.20;2.90;;;25.40;99.90;;;;;;4996650;28;20297;-72
2022/06/06 11:38:01;;;;;;;3.13;2.92;;;25.60;99.90;;;;;;4986052;28;20245;-73
2022/06/06 11:40:58;;;;;;;3.30;3.00;;;25.60;99.90;;;;;;5002958;28;20296;-72
2022/06/06 11:43:55;;;;;;;2.85;2.65;;;25.50;99.90;;;;;;5006449;28;20193;-72
2022/06/06 11:46:55;;;;;;;3.30;3.00;;;25.70;99.90;;;;;;5005741;28;20232;-72
2022/06/06 11:50:04;;;;;;;3.35;2.58;;;26.00;99.90;;;;;;4989126;28;20233;-72
2022/06/06 11:53:02;;;;;;;3.38;3.10;;;26.30;99.90;;;;;;5005702;28;20194;-72
2022/06/06 11:55:39;;;;;;;3.10;2.90;;;26.20;99.90;;;;;;5005577;28;20208;-73
2022/06/06 11:58:49;;;;;;;2.40;2.30;;;25.80;99.90;;;;;;4995865;28;20545;-72
2022/06/06 12:01:53;;;;;;;3.00;2.80;;;25.70;99.90;;;;;;4994457;28;20199;-72
2022/06/06 12:04:53;;;;;;;2.53;2.42;;;25.40;99.90;;;;;;4971445;28;20198;-72
2022/06/06 12:07:51;;;;;;;2.80;2.63;;;25.30;99.90;;;;;;4979007;28;20214;-72
2022/06/06 12:10:24;;;;;;;2.65;2.55;;;25.20;99.90;;;;;;5001394;28;20198;-73
2022/06/06 12:13:09;;;;;;;2.80;2.70;;;25.20;99.90;;;;;;5005550;28;20205;-72
2022/06/06 12:16:01;;;;;;;3.10;2.90;;;25.10;99.90;;;;;;5006081;28;20204;-72
2022/06/06 12:18:51;;;;;;;3.53;3.33;;;25.10;99.90;;;;;;5005498;28;20209;-72
2022/06/06 12:21:53;;;;;;;3.30;3.00;;;25.20;99.90;;;;;;5005392;28;20223;-72
2022/06/06 12:24:55;;;;;;;3.17;2.92;;;25.20;99.90;;;;;;5004987;28;20618;-73
2022/06/06 12:27:30;;;;;;;2.85;2.75;;;25.40;99.90;;;;;;5005906;28;20900;-73
2022/06/06 12:30:19;;;;;;;3.17;2.95;;;25.60;99.90;;;;;;5006210;28;20362;-72
2022/06/06 12:32:53;;;;;;;3.45;2.63;;;25.90;99.90;;;;;;5005882;28;20194;-72
2022/06/06 12:35:27;;;;;;;3.33;3.08;;;25.90;99.90;;;;;;5005851;28;20711;-72
2022/06/06 12:38:05;;;;;;;2.45;2.35;;;26.10;99.90;;;;;;5005241;28;20701;-73
2022/06/06 12:40:48;;;;;;;3.22;3.03;;;26.40;99.90;;;;;;5005480;28;20236;-72
2022/06/06 12:43:26;;;;;;;3.10;2.85;;;26.50;99.90;;;;;;5005552;28;20213;-72
2022/06/06 12:46:17;;;;;;;3.45;2.78;;;26.60;99.90;;;;;;4996792;28;20202;-72
2022/06/06 12:49:13;;;;;;;2.83;2.67;;;26.40;99.70;;;;;;4985466;28;20288;-72
2022/06/06 12:51:52;;;;;;;3.38;3.17;;;26.30;99.90;;;;;;4999032;28;20240;-72
2022/06/06 12:57:41;;;;;;;2.80;2.70;;;26.30;99.90;;;;;;5008647;28;20201;-72
2022/06/06 13:00:10;;;;;;;3.20;3.00;;;26.20;99.90;;;;;;5003968;28;20205;-72
2022/06/06 13:02:49;;;;;;;2.88;2.67;;;26.10;99.90;;;;;;4997553;28;20203;-72
2022/06/06 13:05:25;;;;;;;3.33;3.13;;;26.10;99.90;;;;;;4997644;28;20194;-72
2022/06/06 13:08:07;;;;;;;7.30;2.65;;;26.20;99.90;;;;;;4999076;28;20219;-70
2022/06/06 13:10:42;;;;;;;2.92;2.83;;;26.30;99.90;;;;;;4998757;28;20205;-71
2022/06/06 13:13:52;;;;;;;3.20;2.85;;;26.50;99.90;;;;;;5000616;28;20201;-73
2022/06/06 13:16:32;;;;;;;2.78;2.65;;;26.80;99.90;;;;;;4968947;28;20212;-73
2022/06/06 13:19:31;;;;;;;3.03;2.80;;;27.10;99.70;;;;;;4999916;28;20222;-72
2022/06/06 13:22:12;;;;;;;2.72;2.58;;;27.40;99.50;;;;;;4999631;28;20201;-73
2022/06/06 13:25:10;;;;;;;3.00;2.88;;;27.60;99.10;;;;;;5000158;28;20681;-73
2022/06/06 13:27:59;;;;;;;2.90;2.80;;;27.90;99.10;;;;;;4989908;28;20574;-73
2022/06/06 13:30:35;;;;;;;3.28;2.55;;;27.90;98.50;;;;;;4997181;28;20711;-72
2022/06/06 13:33:18;;;;;;;3.40;2.67;;;27.70;98.30;;;;;;4996439;28;20225;-72
2022/06/06 13:35:56;;;;;;;4.05;3.13;;;27.50;98.70;;;;;;4998873;28;20583;-73
2022/06/06 13:38:38;;;;;;;3.33;3.00;;;27.30;99.10;;;;;;4997719;28;20665;-72
2022/06/06 13:41:23;;;;;;;3.22;3.03;;;27.10;98.80;;;;;;4999452;28;20708;-72
2022/06/06 13:43:58;;;;;;;2.97;2.70;;;27.00;98.00;;;;;;4997772;28;20214;-72
2022/06/06 13:46:40;;;;;;;3.75;2.45;;;26.90;98.40;;;;;;4997542;28;21017;-72
2022/06/06 13:49:23;;;;;;;2.83;2.70;;;26.80;98.00;;;;;;4996205;28;20225;-72
2022/06/06 13:52:05;;;;;;;2.45;2.35;;;26.60;98.50;;;;;;4996389;28;20220;-72
2022/06/06 13:54:33;;;;;;;3.13;2.92;;;26.50;98.30;;;;;;4992052;28;20630;-72
2022/06/06 13:57:23;;;;;;;7.18;2.88;;;26.40;98.20;;;;;;4996313;28;20216;-71
2022/06/06 14:00:14;;;;;;;4.13;3.10;;;26.30;98.60;;;;;;5003181;28;20202;-72
2022/06/06 14:03:10;;;;;;;2.85;2.60;;;26.20;98.50;;;;;;4998395;28;20664;-72
2022/06/06 14:06:07;;;;;;;3.03;2.83;;;26.10;98.20;;;;;;4987897;28;20265;-71
2022/06/06 14:08:50;;;;;;;3.22;2.92;;;26.00;98.80;;;;;;4989512;28;20229;-72
2022/06/06 14:11:45;;;;;;;3.00;2.80;;;26.10;98.60;;;;;;5001247;28;20264;-71
2022/06/06 14:14:16;;;;;;;3.25;2.95;;;26.00;98.30;;;;;;5006933;28;20198;-72
2022/06/06 14:16:45;;;;;;;3.08;2.78;;;25.90;99.10;;;;;;5003706;28;20198;-72
2022/06/06 14:19:17;;;;;;;2.90;2.70;;;25.90;99.30;;;;;;5001376;28;20230;-72
2022/06/06 14:21:50;;;;;;;3.30;3.00;;;25.80;99.90;;;;;;4998769;28;20216;-72
2022/06/06 14:24:19;;;;;;;3.35;3.15;;;25.60;99.60;;;;;;4998480;28;20201;-71